createdAt,value
2022-09-22T00:03:12.257Z,43.29
2022-09-22T00:08:13.634Z,43.34
2022-09-22T00:13:14.996Z,43.42
2022-09-22T00:18:16.353Z,43.30
2022-09-22T00:23:17.767Z,43.35
2022-09-22T00:28:20.116Z,43.23
2022-09-22T00:33:21.481Z,43.30
2022-09-22T00:38:22.853Z,43.11
2022-09-22T00:43:25.858Z,43.22
2022-09-22T00:48:27.940Z,43.23
2022-09-22T00:53:29.297Z,43.23
2022-09-22T00:58:37.457Z,43.11
2022-09-22T01:03:39.104Z,43.27
2022-09-22T01:08:40.500Z,43.27
2022-09-22T01:13:54.780Z,43.30
2022-09-22T01:19:23.469Z,43.32
2022-09-22T01:24:47.624Z,43.19
2022-09-22T01:30:12.671Z,43.21
2022-09-22T01:35:42.708Z,43.28
2022-09-22T01:40:49.628Z,43.04
2022-09-22T01:45:50.989Z,43.24
2022-09-22T01:51:04.265Z,43.30
2022-09-22T01:56:06.340Z,43.36
2022-09-22T02:01:15.391Z,43.00
2022-09-22T02:06:20.460Z,43.30
2022-09-22T02:11:21.949Z,43.26
2022-09-22T02:16:23.757Z,43.53
2022-09-22T02:21:25.308Z,43.28
2022-09-22T02:26:28.284Z,43.13
2022-09-22T02:31:31.711Z,43.27
2022-09-22T02:37:00.273Z,43.12
2022-09-22T02:42:27.760Z,42.88
2022-09-22T02:47:57.457Z,43.43
2022-09-22T02:53:02.976Z,42.93
2022-09-22T02:58:04.336Z,43.02
2022-09-22T03:03:05.698Z,43.16
2022-09-22T03:08:07.079Z,42.99
2022-09-22T03:13:16.001Z,43.17
2022-09-22T03:18:18.373Z,42.84
2022-09-22T03:23:19.723Z,42.88
2022-09-22T03:28:21.317Z,42.77
2022-09-22T03:33:22.720Z,42.97
2022-09-22T03:38:24.091Z,42.91
2022-09-22T03:43:25.451Z,42.98
2022-09-22T03:48:26.900Z,42.96
2022-09-22T03:53:28.580Z,42.79
2022-09-22T03:58:29.932Z,42.77
2022-09-22T04:03:31.573Z,42.74
2022-09-22T04:08:32.940Z,42.66
2022-09-22T04:13:35.333Z,42.77
2022-09-22T04:18:40.022Z,42.34
2022-09-22T04:23:41.388Z,42.54
2022-09-22T04:28:42.761Z,42.57
2022-09-22T04:33:44.564Z,42.54
2022-09-22T04:38:45.936Z,42.35
2022-09-22T04:43:47.300Z,42.49
2022-09-22T04:48:48.660Z,42.22
2022-09-22T04:53:50.042Z,42.28
2022-09-22T04:58:51.404Z,42.41
2022-09-22T05:03:53.240Z,42.43
2022-09-22T05:08:55.393Z,42.35
2022-09-22T05:13:58.530Z,42.27
2022-09-22T05:18:59.897Z,42.27
2022-09-22T05:24:01.664Z,42.08
2022-09-22T05:29:03.024Z,41.96
2022-09-22T05:34:04.379Z,42.30
2022-09-22T05:39:05.773Z,42.06
2022-09-22T05:44:07.197Z,41.97
2022-09-22T05:49:08.560Z,42.14
2022-09-22T05:54:09.997Z,42.29
2022-09-22T05:59:11.366Z,42.07
2022-09-22T06:04:12.727Z,42.33
2022-09-22T06:09:14.129Z,42.00
2022-09-22T06:14:15.480Z,42.24
2022-09-22T06:19:16.840Z,41.90
2022-09-22T06:24:18.364Z,41.29
2022-09-22T06:29:19.853Z,41.20
2022-09-22T06:34:21.216Z,41.17
2022-09-22T06:39:23.297Z,40.74
2022-09-22T06:44:25.226Z,40.62
2022-09-22T06:54:27.832Z,40.62
2022-09-22T06:59:29.348Z,40.45
2022-09-22T07:04:30.714Z,40.84
2022-09-22T07:09:32.173Z,41.01
2022-09-22T07:14:33.546Z,41.19
2022-09-22T07:19:36.380Z,40.89
2022-09-22T07:29:38.984Z,40.80
2022-09-22T07:34:40.345Z,40.77
2022-09-22T07:39:45.127Z,40.96
2022-09-22T07:45:05.257Z,41.10
2022-09-22T07:50:06.968Z,41.15
2022-09-22T07:55:08.430Z,41.06
2022-09-22T08:00:10.634Z,41.52
2022-09-22T08:05:11.993Z,41.44
2022-09-22T08:10:13.432Z,41.68
2022-09-22T08:15:14.843Z,41.11
2022-09-22T08:20:16.733Z,41.51
2022-09-22T08:25:18.139Z,41.34
2022-09-22T08:30:19.760Z,41.59
2022-09-22T08:35:21.187Z,41.54
2022-09-22T08:40:23.454Z,41.43
2022-09-22T08:45:27.208Z,41.58
2022-09-22T08:51:05.462Z,41.86
2022-09-22T08:56:31.763Z,42.68
2022-09-22T09:02:17.954Z,42.44
2022-09-22T09:07:31.964Z,41.90
2022-09-22T09:12:44.518Z,41.88
2022-09-22T09:17:46.208Z,41.75
2022-09-22T09:22:57.093Z,41.58
2022-09-22T09:28:00.723Z,41.35
2022-09-22T09:33:02.080Z,41.50
2022-09-22T09:38:03.436Z,41.55
2022-09-22T09:43:05.016Z,41.41
2022-09-22T09:48:19.753Z,41.25
2022-09-22T09:53:30.671Z,41.29
2022-09-22T09:58:50.540Z,41.11
2022-09-22T10:03:54.711Z,41.32
2022-09-22T10:08:56.987Z,41.31
2022-09-22T10:13:58.382Z,41.01
2022-09-22T10:19:05.548Z,41.17
2022-09-22T10:24:41.881Z,40.92
2022-09-22T10:29:43.385Z,41.45
2022-09-22T10:34:48.794Z,41.15
2022-09-22T10:39:51.780Z,40.96
2022-09-22T10:44:53.199Z,40.28
2022-09-22T10:50:41.783Z,40.88
2022-09-22T10:55:49.180Z,40.33
2022-09-22T11:00:50.573Z,39.83
2022-09-22T11:06:13.780Z,39.71
2022-09-22T11:12:05.948Z,40.23
2022-09-22T11:17:31.096Z,40.17
2022-09-22T11:22:58.345Z,40.37
2022-09-22T11:28:21.063Z,40.01
2022-09-22T11:33:56.000Z,40.04
2022-09-22T11:39:21.981Z,39.51
2022-09-22T11:44:30.329Z,39.19
2022-09-22T11:49:44.977Z,39.38
2022-09-22T11:55:10.855Z,38.90
2022-09-22T12:00:17.305Z,38.86
2022-09-22T12:05:28.608Z,38.27
2022-09-22T12:10:56.290Z,36.98
2022-09-22T12:16:25.760Z,37.51
2022-09-22T12:21:50.584Z,36.41
2022-09-22T12:26:51.956Z,36.16
2022-09-22T12:31:55.418Z,36.36
2022-09-22T12:37:12.291Z,36.21
2022-09-22T12:42:16.584Z,35.80
2022-09-22T12:47:39.876Z,36.32
2022-09-22T12:52:41.071Z,36.58
2022-09-22T12:57:51.642Z,37.16
2022-09-22T13:02:53.834Z,37.38
2022-09-22T13:07:55.664Z,37.54
2022-09-22T13:13:00.049Z,37.46
2022-09-22T13:18:01.407Z,37.25
2022-09-22T13:23:11.840Z,37.26
2022-09-22T13:28:24.994Z,37.48
2022-09-22T13:33:28.072Z,37.39
2022-09-22T13:38:29.689Z,36.51
2022-09-22T13:43:37.138Z,35.92
2022-09-22T13:48:38.491Z,35.31
2022-09-22T13:53:39.861Z,34.85
2022-09-22T13:58:41.660Z,34.31
2022-09-22T14:03:43.227Z,35.09
2022-09-22T14:08:45.312Z,34.47
2022-09-22T14:13:52.595Z,34.17
2022-09-22T14:19:29.082Z,34.79
2022-09-22T14:24:30.848Z,35.23
2022-09-22T14:29:38.630Z,35.89
2022-09-22T14:34:40.017Z,35.91
2022-09-22T14:39:41.430Z,36.45
2022-09-22T14:44:49.804Z,36.20
2022-09-22T14:50:11.510Z,36.43
2022-09-22T14:55:30.612Z,36.36
2022-09-22T15:00:50.338Z,36.71
2022-09-22T15:05:51.803Z,36.94
2022-09-22T15:10:57.028Z,37.90
2022-09-22T15:15:58.662Z,37.69
2022-09-22T15:21:08.899Z,37.81
2022-09-22T15:26:25.203Z,37.92
2022-09-22T15:31:28.083Z,38.19
2022-09-22T15:36:32.631Z,37.91
2022-09-22T15:41:34.675Z,38.02
2022-09-22T15:46:36.951Z,37.61
2022-09-22T15:51:38.325Z,37.16
2022-09-22T15:56:40.189Z,37.97
2022-09-22T16:01:41.549Z,38.12
2022-09-22T16:06:44.405Z,38.23
2022-09-22T16:11:45.940Z,38.68
2022-09-22T16:16:47.299Z,37.63
2022-09-22T16:21:50.244Z,38.35
2022-09-22T16:26:51.634Z,38.37
2022-09-22T16:31:53.602Z,38.32
2022-09-22T16:36:55.049Z,38.57
2022-09-22T16:41:57.508Z,38.26
2022-09-22T16:46:58.949Z,38.35
2022-09-22T16:52:00.510Z,38.40
2022-09-22T16:57:01.872Z,38.52
2022-09-22T17:02:03.549Z,38.72
2022-09-22T17:07:05.512Z,38.80
2022-09-22T17:12:08.219Z,38.97
2022-09-22T17:17:09.861Z,39.12
2022-09-22T17:22:11.804Z,39.24
2022-09-22T17:27:13.172Z,39.62
2022-09-22T17:32:14.969Z,39.41
2022-09-22T17:37:16.360Z,39.65
2022-09-22T17:47:37.572Z,39.77
2022-09-22T17:52:57.197Z,39.82
2022-09-22T17:57:58.553Z,39.71
2022-09-22T18:03:00.110Z,39.74
2022-09-22T18:08:01.646Z,39.99
2022-09-22T18:13:04.166Z,39.90
2022-09-22T18:18:05.574Z,39.84
2022-09-22T18:23:06.968Z,39.82
2022-09-22T18:28:08.325Z,40.06
2022-09-22T18:33:10.707Z,40.17
2022-09-22T18:38:12.060Z,39.93
2022-09-22T18:43:13.419Z,40.09
2022-09-22T18:48:17.349Z,40.39
2022-09-22T18:53:21.949Z,40.20
2022-09-22T18:58:23.336Z,40.20
2022-09-22T19:03:24.801Z,40.28
2022-09-22T19:08:27.119Z,40.54
2022-09-22T19:13:28.481Z,40.51
2022-09-22T19:18:29.842Z,40.45
2022-09-22T19:23:32.341Z,40.63
2022-09-22T19:28:33.868Z,40.52
2022-09-22T19:33:35.321Z,40.61
2022-09-22T19:38:36.676Z,40.54
2022-09-22T19:43:38.041Z,40.56
2022-09-22T19:48:39.416Z,40.69
2022-09-22T19:53:40.786Z,40.55
2022-09-22T19:58:42.145Z,40.33
2022-09-22T20:03:43.556Z,40.65
2022-09-22T20:08:44.913Z,40.49
2022-09-22T20:14:04.864Z,40.63
2022-09-22T20:19:06.469Z,40.40
2022-09-22T20:24:10.300Z,40.49
2022-09-22T20:29:13.060Z,40.57
2022-09-22T20:34:15.006Z,40.34
2022-09-22T20:39:16.396Z,40.52
2022-09-22T20:44:17.820Z,40.37
2022-09-22T20:49:19.856Z,40.61
2022-09-22T20:54:22.830Z,40.66
2022-09-22T20:59:24.243Z,40.30
2022-09-22T21:04:25.608Z,40.58
2022-09-22T21:09:45.285Z,40.58
2022-09-22T21:14:46.676Z,40.48
2022-09-22T21:19:48.108Z,40.46
2022-09-22T21:24:49.929Z,40.32
2022-09-22T21:29:51.333Z,40.31
2022-09-22T21:34:52.767Z,40.55
2022-09-22T21:39:54.159Z,40.39
2022-09-22T21:44:55.544Z,40.45
2022-09-22T21:49:56.908Z,40.41
2022-09-22T21:54:58.274Z,40.83
2022-09-22T21:59:59.637Z,40.95
2022-09-22T22:05:01.003Z,40.54
2022-09-22T22:10:02.792Z,40.67
2022-09-22T22:15:05.041Z,40.75
2022-09-22T22:20:06.527Z,40.74
2022-09-22T22:25:12.621Z,40.53
2022-09-22T22:30:14.040Z,40.26
2022-09-22T22:35:15.404Z,40.28
2022-09-22T22:40:16.804Z,40.03
2022-09-22T22:45:18.246Z,40.00
2022-09-22T22:50:19.861Z,40.12
2022-09-22T22:55:23.936Z,40.17
2022-09-22T23:00:25.345Z,40.17
2022-09-22T23:05:27.745Z,39.94
2022-09-22T23:10:31.133Z,39.93
2022-09-22T23:15:32.652Z,39.90
2022-09-22T23:20:34.075Z,40.00
2022-09-22T23:25:36.068Z,39.73
2022-09-22T23:30:37.480Z,39.90
2022-09-22T23:35:39.984Z,39.81
2022-09-22T23:40:42.463Z,39.95
2022-09-22T23:45:43.905Z,39.79
2022-09-22T23:50:46.173Z,39.84
2022-09-22T23:55:47.541Z,39.64
